createdAt,value
2023-01-27T00:01:11.607Z,0.48
2023-01-27T00:03:39.767Z,0.56
2023-01-27T00:06:11.961Z,0.50
2023-01-27T00:08:40.174Z,0.19
2023-01-27T00:11:25.551Z,0.00
2023-01-27T00:13:53.831Z,0.49
2023-01-27T00:16:22.178Z,0.42
2023-01-27T00:18:50.336Z,0.34
2023-01-27T00:21:37.475Z,0.67
2023-01-27T00:24:23.288Z,0.70
2023-01-27T00:26:51.476Z,0.46
2023-01-27T00:29:19.830Z,0.44
2023-01-27T00:32:05.084Z,0.22
2023-01-27T00:34:33.308Z,0.42
2023-01-27T00:37:03.758Z,0.54
2023-01-27T00:39:34.087Z,0.47
2023-01-27T00:42:02.890Z,0.29
2023-01-27T00:44:30.816Z,0.36
2023-01-27T00:46:58.771Z,0.41
2023-01-27T00:49:26.964Z,0.39
2023-01-27T00:51:55.662Z,0.38
2023-01-27T00:54:25.052Z,0.52
2023-01-27T00:56:53.064Z,0.58
2023-01-27T00:59:20.912Z,0.73
2023-01-27T01:01:50.903Z,0.75
2023-01-27T01:04:18.803Z,0.81
2023-01-27T01:06:47.618Z,0.95
2023-01-27T01:09:15.877Z,0.90
2023-01-27T01:11:45.075Z,0.70
2023-01-27T01:14:13.687Z,0.51
2023-01-27T01:16:41.562Z,0.62
2023-01-27T01:19:09.874Z,0.30
2023-01-27T01:21:40.764Z,0.58
2023-01-27T01:24:09.083Z,0.25
2023-01-27T01:26:37.321Z,0.65
2023-01-27T01:29:08.344Z,0.63
2023-01-27T01:31:36.219Z,0.60
2023-01-27T01:34:05.059Z,0.82
2023-01-27T01:36:32.937Z,0.83
2023-01-27T01:39:00.880Z,0.86
2023-01-27T01:41:31.451Z,0.81
2023-01-27T01:43:59.695Z,0.86
2023-01-27T01:46:31.453Z,0.71
2023-01-27T01:49:02.696Z,0.80
2023-01-27T01:51:35.518Z,0.88
2023-01-27T01:54:09.259Z,0.99
2023-01-27T01:56:45.308Z,0.86
2023-01-27T01:59:18.527Z,0.84
2023-01-27T02:01:48.792Z,0.79
2023-01-27T02:04:19.311Z,0.82
2023-01-27T02:06:54.549Z,0.82
2023-01-27T02:09:23.901Z,0.78
2023-01-27T02:11:55.313Z,0.89
2023-01-27T02:14:23.700Z,0.56
2023-01-27T02:16:53.118Z,0.33
2023-01-27T02:19:26.234Z,0.83
2023-01-27T02:21:59.434Z,0.66
2023-01-27T02:24:34.652Z,0.65
2023-01-27T02:27:03.910Z,0.76
2023-01-27T02:29:31.901Z,0.82
2023-01-27T02:32:00.291Z,0.75
2023-01-27T02:34:34.003Z,0.55
2023-01-27T02:37:06.448Z,0.34
2023-01-27T02:39:38.779Z,0.34
2023-01-27T02:42:11.537Z,0.23
2023-01-27T02:44:39.612Z,0.56
2023-01-27T02:47:08.624Z,0.76
2023-01-27T02:49:37.080Z,0.82
2023-01-27T02:52:05.341Z,0.65
2023-01-27T02:54:34.023Z,0.65
2023-01-27T02:57:03.249Z,0.32
2023-01-27T02:59:35.312Z,0.31
2023-01-27T03:02:04.628Z,0.38
2023-01-27T03:04:32.535Z,0.59
2023-01-27T03:07:00.476Z,0.63
2023-01-27T03:09:29.157Z,0.65
2023-01-27T03:12:24.269Z,0.79
2023-01-27T03:15:12.284Z,0.52
2023-01-27T03:17:57.960Z,0.70
2023-01-27T03:20:26.461Z,0.76
2023-01-27T03:22:54.342Z,0.70
2023-01-27T03:25:24.407Z,0.74
2023-01-27T03:27:55.982Z,0.97
2023-01-27T03:30:35.743Z,0.52
2023-01-27T03:33:12.101Z,0.53
2023-01-27T03:36:16.577Z,0.75
2023-01-27T03:39:06.307Z,0.77
2023-01-27T03:41:52.297Z,0.60
2023-01-27T03:44:40.781Z,0.47
2023-01-27T03:47:11.168Z,0.12
2023-01-27T03:49:41.347Z,0.37
2023-01-27T03:52:09.099Z,0.17
2023-01-27T03:54:36.953Z,0.16
2023-01-27T03:57:06.358Z,0.64
2023-01-27T03:59:36.157Z,0.44
2023-01-27T04:02:21.748Z,0.15
2023-01-27T04:05:08.507Z,0.45
2023-01-27T04:07:36.909Z,0.53
2023-01-27T04:10:06.724Z,0.44
2023-01-27T04:12:33.636Z,0.04
2023-01-27T04:15:01.544Z,0.19
2023-01-27T04:17:30.795Z,-0.04
2023-01-27T04:20:00.784Z,0.25
2023-01-27T04:22:28.677Z,0.07
2023-01-27T04:24:56.521Z,0.03
2023-01-27T04:27:24.365Z,0.05
2023-01-27T04:29:52.253Z,0.43
2023-01-27T04:32:20.745Z,0.61
2023-01-27T04:34:48.596Z,0.42
2023-01-27T04:37:18.328Z,0.39
2023-01-27T04:39:47.325Z,0.49
2023-01-27T04:42:15.467Z,0.42
2023-01-27T04:44:43.343Z,0.04
2023-01-27T04:47:11.293Z,-0.07
2023-01-27T04:49:39.635Z,0.20
2023-01-27T04:52:07.648Z,0.30
2023-01-27T04:54:37.031Z,0.27
2023-01-27T04:57:07.482Z,0.38
2023-01-27T04:59:35.502Z,0.51
2023-01-27T05:02:04.789Z,0.49
2023-01-27T05:04:32.672Z,0.44
2023-01-27T05:07:00.565Z,0.52
2023-01-27T05:09:28.462Z,0.55
2023-01-27T05:11:57.614Z,0.52
2023-01-27T05:14:26.260Z,0.56
2023-01-27T05:16:54.253Z,0.73
2023-01-27T05:19:24.441Z,0.83
2023-01-27T05:21:52.420Z,0.80
2023-01-27T05:24:20.261Z,0.77
2023-01-27T05:26:48.218Z,0.39
2023-01-27T05:29:17.396Z,0.39
2023-01-27T05:31:45.304Z,0.31
2023-01-27T05:34:13.147Z,0.71
2023-01-27T05:36:43.350Z,0.18
2023-01-27T05:39:12.334Z,0.51
2023-01-27T05:41:40.240Z,0.56
2023-01-27T05:44:08.269Z,-0.10
2023-01-27T05:46:40.503Z,0.25
2023-01-27T05:49:08.413Z,0.06
2023-01-27T05:51:39.649Z,0.04
2023-01-27T05:54:08.137Z,-0.07
2023-01-27T05:56:35.935Z,0.07
2023-01-27T05:59:03.804Z,0.14
2023-01-27T06:01:33.535Z,-0.20
2023-01-27T06:04:03.036Z,-0.04
2023-01-27T06:06:32.621Z,0.19
2023-01-27T06:09:01.109Z,0.21
2023-01-27T06:11:31.288Z,0.20
2023-01-27T06:13:59.147Z,0.47
2023-01-27T06:16:27.093Z,0.38
2023-01-27T06:18:58.680Z,0.37
2023-01-27T06:21:28.003Z,0.17
2023-01-27T06:23:58.194Z,0.38
2023-01-27T06:26:26.234Z,0.26
2023-01-27T06:28:54.302Z,0.07
2023-01-27T06:31:23.043Z,0.39
2023-01-27T06:33:51.684Z,0.50
2023-01-27T06:36:23.080Z,0.55
2023-01-27T06:38:52.585Z,0.05
2023-01-27T06:41:20.823Z,0.28
2023-01-27T06:43:51.095Z,0.08
2023-01-27T06:46:18.967Z,0.34
2023-01-27T06:48:47.991Z,0.30
2023-01-27T06:51:16.078Z,0.04
2023-01-27T06:53:43.926Z,-0.18
2023-01-27T06:56:13.160Z,0.21
2023-01-27T06:58:40.939Z,-0.09
2023-01-27T07:01:11.005Z,-0.01
2023-01-27T07:03:39.050Z,0.20
2023-01-27T07:06:07.726Z,0.12
2023-01-27T07:08:35.652Z,0.38
2023-01-27T07:11:05.125Z,-0.04
2023-01-27T07:13:34.441Z,-0.03
2023-01-27T07:16:02.443Z,-0.10
2023-01-27T07:18:30.581Z,0.06
2023-01-27T07:20:58.505Z,0.33
2023-01-27T07:23:26.383Z,0.20
2023-01-27T07:25:54.245Z,0.28
2023-01-27T07:28:22.070Z,-0.04
2023-01-27T07:30:51.445Z,-0.04
2023-01-27T07:33:19.249Z,0.11
2023-01-27T07:35:49.839Z,-0.10
2023-01-27T07:38:18.023Z,-0.06
2023-01-27T07:40:45.816Z,-0.11
2023-01-27T07:43:13.838Z,0.07
2023-01-27T07:45:42.166Z,0.04
2023-01-27T07:48:12.894Z,-0.13
2023-01-27T07:50:41.642Z,-0.08
2023-01-27T07:53:09.562Z,0.04
2023-01-27T07:55:39.860Z,0.16
2023-01-27T07:58:11.277Z,-0.03
2023-01-27T08:00:39.456Z,0.03
2023-01-27T08:03:07.532Z,-0.08
2023-01-27T08:05:38.420Z,-0.08
2023-01-27T08:08:06.693Z,-0.15
2023-01-27T08:10:34.640Z,0.14
2023-01-27T08:13:02.594Z,-0.13
2023-01-27T08:15:30.480Z,0.07
2023-01-27T08:17:59.468Z,-0.05
2023-01-27T08:20:29.912Z,-0.34
2023-01-27T08:22:59.315Z,0.09
2023-01-27T08:25:27.145Z,-0.11
2023-01-27T08:27:56.948Z,-0.37
2023-01-27T08:30:25.376Z,-0.41
2023-01-27T08:32:53.723Z,-0.39
2023-01-27T08:35:21.568Z,0.08
2023-01-27T08:37:49.564Z,-0.12
2023-01-27T08:40:21.407Z,0.07
2023-01-27T08:42:51.284Z,0.09
2023-01-27T08:45:19.126Z,0.47
2023-01-27T08:47:47.149Z,0.16
2023-01-27T08:50:15.314Z,0.40
2023-01-27T08:52:43.431Z,0.08
2023-01-27T08:55:11.479Z,0.47
2023-01-27T08:57:40.784Z,-0.13
2023-01-27T09:00:11.418Z,0.18
2023-01-27T09:02:39.768Z,0.11
2023-01-27T09:05:08.020Z,0.37
2023-01-27T09:07:35.961Z,0.43
2023-01-27T09:10:14.265Z,0.17
2023-01-27T09:12:45.241Z,-0.21
2023-01-27T09:15:14.825Z,0.05
2023-01-27T09:17:42.913Z,0.30
2023-01-27T09:20:12.700Z,0.38
2023-01-27T09:22:41.384Z,-0.08
2023-01-27T09:25:15.851Z,-0.25
2023-01-27T09:27:45.078Z,-0.25
2023-01-27T09:30:14.989Z,0.19
2023-01-27T09:32:43.422Z,0.05
2023-01-27T09:35:11.857Z,0.22
2023-01-27T09:37:43.974Z,0.17
2023-01-27T09:40:22.971Z,0.26
2023-01-27T09:43:16.365Z,0.16
2023-01-27T09:46:07.782Z,0.37
2023-01-27T09:48:55.509Z,0.33
2023-01-27T09:51:32.059Z,0.61
2023-01-27T09:54:32.038Z,0.85
2023-01-27T09:57:09.411Z,0.84
2023-01-27T10:00:04.124Z,0.98
2023-01-27T10:03:00.418Z,0.90
2023-01-27T10:05:52.816Z,0.85
2023-01-27T10:08:44.947Z,0.84
2023-01-27T10:11:22.671Z,0.87
2023-01-27T10:14:07.738Z,0.75
2023-01-27T10:17:02.624Z,0.81
2023-01-27T10:19:45.967Z,1.14
2023-01-27T10:22:20.020Z,1.19
2023-01-27T10:25:01.913Z,1.21
2023-01-27T10:27:37.621Z,1.39
2023-01-27T10:30:14.635Z,1.20
2023-01-27T10:32:51.394Z,0.63
2023-01-27T10:35:21.294Z,0.84
2023-01-27T10:38:03.217Z,1.13
2023-01-27T10:40:40.529Z,1.04
2023-01-27T10:43:16.459Z,1.03
2023-01-27T10:45:55.092Z,0.87
2023-01-27T10:48:34.722Z,1.11
2023-01-27T10:51:09.868Z,1.19
2023-01-27T10:53:48.966Z,1.30
2023-01-27T10:56:25.525Z,1.27
2023-01-27T10:59:02.886Z,0.91
2023-01-27T11:01:35.825Z,0.91
2023-01-27T11:04:11.753Z,0.99
2023-01-27T11:06:43.024Z,0.91
2023-01-27T11:09:24.678Z,0.80
2023-01-27T11:11:55.114Z,0.76
2023-01-27T11:14:28.840Z,0.61
2023-01-27T11:17:04.791Z,0.77
2023-01-27T11:19:42.119Z,1.28
2023-01-27T11:22:19.699Z,1.64
2023-01-27T11:24:52.749Z,1.62
2023-01-27T11:27:31.446Z,1.46
2023-01-27T11:30:07.807Z,1.80
2023-01-27T11:32:45.776Z,1.82
2023-01-27T11:35:17.972Z,1.73
2023-01-27T11:37:49.897Z,1.37
2023-01-27T11:40:22.865Z,1.81
2023-01-27T11:42:51.963Z,1.71
2023-01-27T11:45:21.997Z,1.42
2023-01-27T11:47:56.546Z,1.47
2023-01-27T11:50:30.608Z,1.27
2023-01-27T11:53:06.103Z,0.83
2023-01-27T11:55:39.302Z,1.29
2023-01-27T11:58:16.083Z,0.83
2023-01-27T12:00:48.786Z,0.99
2023-01-27T12:03:23.346Z,1.22
2023-01-27T12:05:56.918Z,0.80
2023-01-27T12:08:40.216Z,1.00
2023-01-27T12:11:20.441Z,1.37
2023-01-27T12:13:54.100Z,0.97
2023-01-27T12:16:24.952Z,1.35
2023-01-27T12:18:58.620Z,1.01
2023-01-27T12:21:40.420Z,1.19
2023-01-27T12:24:22.364Z,1.19
2023-01-27T12:26:53.356Z,1.32
2023-01-27T12:29:27.067Z,1.62
2023-01-27T12:31:58.349Z,1.27
2023-01-27T12:34:32.851Z,1.36
2023-01-27T12:37:05.743Z,1.57
2023-01-27T12:39:42.507Z,1.67
2023-01-27T12:42:36.091Z,1.30
2023-01-27T12:45:21.237Z,1.16
2023-01-27T12:48:01.572Z,1.14
2023-01-27T12:50:31.736Z,1.50
2023-01-27T12:53:11.108Z,1.33
2023-01-27T12:55:42.278Z,1.31
2023-01-27T12:58:30.830Z,1.31
2023-01-27T13:01:01.177Z,1.45
2023-01-27T13:03:30.348Z,1.50
2023-01-27T13:06:00.428Z,1.35
2023-01-27T13:08:34.637Z,1.73
2023-01-27T13:11:05.038Z,1.29
2023-01-27T13:13:33.994Z,1.26
2023-01-27T13:16:07.384Z,1.28
2023-01-27T13:18:38.486Z,1.63
2023-01-27T13:21:15.236Z,1.34
2023-01-27T13:23:49.187Z,1.35
2023-01-27T13:26:22.347Z,1.13
2023-01-27T13:28:58.083Z,1.25
2023-01-27T13:31:43.598Z,1.36
2023-01-27T13:34:22.661Z,1.14
2023-01-27T13:36:57.601Z,1.23
2023-01-27T13:39:46.669Z,0.91
2023-01-27T13:42:20.983Z,1.16
2023-01-27T13:44:57.107Z,1.28
2023-01-27T13:47:30.745Z,0.89
2023-01-27T13:50:06.582Z,0.91
2023-01-27T13:52:38.540Z,0.77
2023-01-27T13:55:13.531Z,1.00
2023-01-27T13:57:59.991Z,1.02
2023-01-27T14:00:32.635Z,0.91
2023-01-27T14:03:30.670Z,1.19
2023-01-27T14:06:28.238Z,1.21
2023-01-27T14:09:13.546Z,1.22
2023-01-27T14:11:52.208Z,1.13
2023-01-27T14:14:31.668Z,1.24
2023-01-27T14:17:27.628Z,0.93
2023-01-27T14:20:09.936Z,0.97
2023-01-27T14:22:47.480Z,1.08
2023-01-27T14:25:26.677Z,1.01
2023-01-27T14:28:10.159Z,1.15
2023-01-27T14:30:43.239Z,1.39
2023-01-27T14:33:22.249Z,0.99
2023-01-27T14:35:54.455Z,1.21
2023-01-27T14:38:32.165Z,1.18
2023-01-27T14:41:14.841Z,1.22
2023-01-27T14:43:55.456Z,1.01
2023-01-27T14:46:50.115Z,1.11
2023-01-27T14:49:32.588Z,1.30
2023-01-27T14:52:10.505Z,1.19
2023-01-27T14:55:01.716Z,0.99
2023-01-27T14:57:39.974Z,1.23
2023-01-27T15:00:27.335Z,0.96
2023-01-27T15:03:18.670Z,1.01
2023-01-27T15:05:57.640Z,1.15
2023-01-27T15:08:31.621Z,1.22
2023-01-27T15:11:15.878Z,1.33
2023-01-27T15:13:57.274Z,1.06
2023-01-27T15:16:45.728Z,1.13
2023-01-27T15:19:36.363Z,1.10
2023-01-27T15:22:30.902Z,0.83
2023-01-27T15:25:19.902Z,0.96
2023-01-27T15:27:49.825Z,0.98
2023-01-27T15:30:30.299Z,1.23
2023-01-27T15:33:00.358Z,1.08
2023-01-27T15:35:37.938Z,1.26
2023-01-27T15:38:21.013Z,1.17
2023-01-27T15:41:09.266Z,1.24
2023-01-27T15:43:44.246Z,1.17
2023-01-27T15:46:25.809Z,1.52
2023-01-27T15:48:56.480Z,1.48
2023-01-27T15:51:25.768Z,1.30
2023-01-27T15:53:57.323Z,1.09
2023-01-27T15:56:42.022Z,1.12
2023-01-27T15:59:17.201Z,1.46
2023-01-27T16:01:45.374Z,1.25
2023-01-27T16:04:18.171Z,1.30
2023-01-27T16:06:51.776Z,1.23
2023-01-27T16:09:34.892Z,1.41
2023-01-27T16:12:06.144Z,1.20
2023-01-27T16:14:45.777Z,1.25
2023-01-27T16:17:33.499Z,1.12
2023-01-27T16:20:27.129Z,1.20
2023-01-27T16:23:02.082Z,1.22
2023-01-27T16:25:40.593Z,1.05
2023-01-27T16:28:16.110Z,1.13
2023-01-27T16:30:50.067Z,1.14
2023-01-27T16:33:26.070Z,1.10
2023-01-27T16:36:01.103Z,1.25
2023-01-27T16:38:33.124Z,1.21
2023-01-27T16:41:06.780Z,1.30
2023-01-27T16:43:45.082Z,1.21
2023-01-27T16:46:29.898Z,1.43
2023-01-27T16:48:58.453Z,1.26
2023-01-27T16:51:30.315Z,1.22
2023-01-27T16:54:01.019Z,1.23
2023-01-27T16:56:33.630Z,1.42
2023-01-27T16:59:04.240Z,1.42
2023-01-27T17:01:38.970Z,1.49
2023-01-27T17:04:19.792Z,1.44
2023-01-27T17:06:50.824Z,1.39
2023-01-27T17:09:23.886Z,1.54
2023-01-27T17:11:54.001Z,1.68
2023-01-27T17:14:30.787Z,1.68
2023-01-27T17:17:01.234Z,1.49
2023-01-27T17:19:32.417Z,1.61
2023-01-27T17:22:03.528Z,1.95
2023-01-27T17:24:34.417Z,2.00
2023-01-27T17:27:07.533Z,1.72
2023-01-27T17:29:38.268Z,1.91
2023-01-27T17:32:21.715Z,2.13
2023-01-27T17:34:52.142Z,2.21
2023-01-27T17:37:25.106Z,2.34
2023-01-27T17:39:55.562Z,2.42
2023-01-27T17:42:27.301Z,2.47
2023-01-27T17:44:55.846Z,2.11
2023-01-27T17:47:24.852Z,1.94
2023-01-27T17:49:53.037Z,2.13
2023-01-27T17:52:27.803Z,2.25
2023-01-27T17:55:03.766Z,2.24
2023-01-27T17:57:35.545Z,2.07
2023-01-27T18:00:09.689Z,2.23
2023-01-27T18:02:45.110Z,2.27
2023-01-27T18:05:19.652Z,2.43
2023-01-27T18:07:49.535Z,2.33
2023-01-27T18:10:25.935Z,2.46
2023-01-27T18:12:55.897Z,2.47
2023-01-27T18:15:39.124Z,2.49
2023-01-27T18:18:23.157Z,2.58
2023-01-27T18:21:03.448Z,2.43
2023-01-27T18:23:35.670Z,2.54
2023-01-27T18:26:07.101Z,2.48
2023-01-27T18:28:39.439Z,2.52
2023-01-27T18:31:15.967Z,2.53
2023-01-27T18:33:46.371Z,2.43
2023-01-27T18:36:23.196Z,2.41
2023-01-27T18:38:52.792Z,2.45
2023-01-27T18:41:24.720Z,2.56
2023-01-27T18:43:52.747Z,2.56
2023-01-27T18:46:21.311Z,2.57
2023-01-27T18:48:49.650Z,2.65
2023-01-27T18:51:18.409Z,2.48
2023-01-27T18:53:46.787Z,2.31
2023-01-27T18:56:16.794Z,2.50
2023-01-27T18:58:44.913Z,2.57
2023-01-27T19:01:22.175Z,2.60
2023-01-27T19:03:50.967Z,2.60
2023-01-27T19:06:19.097Z,2.68
2023-01-27T19:08:48.884Z,2.72
2023-01-27T19:11:19.136Z,2.67
2023-01-27T19:13:49.017Z,2.64
2023-01-27T19:16:18.855Z,2.74
2023-01-27T19:18:46.838Z,2.69
2023-01-27T19:21:16.787Z,2.77
2023-01-27T19:23:45.966Z,2.72
2023-01-27T19:26:19.268Z,2.68
2023-01-27T19:28:50.137Z,2.78
2023-01-27T19:31:18.213Z,2.50
2023-01-27T19:33:47.772Z,2.73
2023-01-27T19:36:22.338Z,2.55
2023-01-27T19:38:53.097Z,2.70
2023-01-27T19:41:22.428Z,2.67
2023-01-27T19:43:50.824Z,2.60
2023-01-27T19:46:23.423Z,2.72
2023-01-27T19:48:52.005Z,2.75
2023-01-27T19:51:20.706Z,2.62
2023-01-27T19:53:48.754Z,2.60
2023-01-27T19:56:19.210Z,2.05
2023-01-27T19:58:51.980Z,2.10
2023-01-27T20:01:20.868Z,2.20
2023-01-27T20:03:49.183Z,2.22
2023-01-27T20:06:21.224Z,2.05
2023-01-27T20:08:52.117Z,1.86
2023-01-27T20:11:38.521Z,2.07
2023-01-27T20:14:13.725Z,2.02
2023-01-27T20:16:42.333Z,2.09
2023-01-27T20:19:15.137Z,2.09
2023-01-27T20:21:43.279Z,2.15
2023-01-27T20:24:15.773Z,2.02
2023-01-27T20:26:44.111Z,1.87
2023-01-27T20:29:14.383Z,2.21
2023-01-27T20:31:43.610Z,2.36
2023-01-27T20:34:11.462Z,2.12
2023-01-27T20:36:39.330Z,2.06
2023-01-27T20:39:07.223Z,2.13
2023-01-27T20:41:35.534Z,2.22
2023-01-27T20:44:04.100Z,2.01
2023-01-27T20:46:33.503Z,2.13
2023-01-27T20:49:01.831Z,2.14
2023-01-27T20:51:30.278Z,1.92
2023-01-27T20:54:00.845Z,2.22
2023-01-27T20:56:29.246Z,2.11
2023-01-27T20:58:57.417Z,2.44
2023-01-27T21:01:25.576Z,2.31
2023-01-27T21:03:54.982Z,2.54
2023-01-27T21:06:22.956Z,2.62
2023-01-27T21:08:51.114Z,2.54
2023-01-27T21:11:21.274Z,2.25
2023-01-27T21:13:50.592Z,1.89
2023-01-27T21:16:18.927Z,2.05
2023-01-27T21:18:49.197Z,2.06
2023-01-27T21:21:25.670Z,1.92
2023-01-27T21:23:53.927Z,1.97
2023-01-27T21:26:22.124Z,1.96
2023-01-27T21:28:50.082Z,1.94
2023-01-27T21:31:20.003Z,2.02
2023-01-27T21:33:48.373Z,1.94
2023-01-27T21:36:16.347Z,1.89
2023-01-27T21:38:45.759Z,1.96
2023-01-27T21:41:35.853Z,1.97
2023-01-27T21:44:22.207Z,1.84
2023-01-27T21:46:50.244Z,1.64
2023-01-27T21:49:18.591Z,1.94
2023-01-27T21:51:48.657Z,2.06
2023-01-27T21:54:19.323Z,1.65
2023-01-27T21:56:47.940Z,1.70
2023-01-27T21:59:16.142Z,1.68
2023-01-27T22:01:44.070Z,1.37
2023-01-27T22:04:12.284Z,1.63
2023-01-27T22:06:40.314Z,1.71
2023-01-27T22:09:08.596Z,1.69
2023-01-27T22:11:37.949Z,1.76
2023-01-27T22:14:05.871Z,1.57
2023-01-27T22:16:33.740Z,1.60
2023-01-27T22:19:01.600Z,1.76
2023-01-27T22:21:29.477Z,1.54
2023-01-27T22:23:58.059Z,1.64
2023-01-27T22:26:26.091Z,1.59
2023-01-27T22:28:55.344Z,1.60
2023-01-27T22:31:23.224Z,1.38
2023-01-27T22:33:51.210Z,1.50
2023-01-27T22:36:19.506Z,1.45
2023-01-27T22:38:47.450Z,1.55
2023-01-27T22:41:15.447Z,1.36
2023-01-27T22:43:43.448Z,1.51
2023-01-27T22:46:12.960Z,1.46
2023-01-27T22:48:41.026Z,1.61
2023-01-27T22:51:08.997Z,1.49
2023-01-27T22:53:36.965Z,1.48
2023-01-27T22:56:05.859Z,1.52
2023-01-27T22:58:33.913Z,1.38
2023-01-27T23:01:02.063Z,1.45
2023-01-27T23:03:31.457Z,1.45
2023-01-27T23:05:59.499Z,1.56
2023-01-27T23:08:27.405Z,1.48
2023-01-27T23:11:00.236Z,1.52
2023-01-27T23:13:28.350Z,1.48
2023-01-27T23:15:56.469Z,1.68
2023-01-27T23:18:25.006Z,1.41
2023-01-27T23:20:54.493Z,1.63
2023-01-27T23:23:23.238Z,1.51
2023-01-27T23:25:51.620Z,1.37
2023-01-27T23:28:21.357Z,1.29
2023-01-27T23:30:51.486Z,1.48
2023-01-27T23:33:21.289Z,1.36
2023-01-27T23:35:49.651Z,1.44
2023-01-27T23:38:31.648Z,1.52
2023-01-27T23:41:02.129Z,1.68
2023-01-27T23:43:31.202Z,1.47
2023-01-27T23:46:00.653Z,1.39
2023-01-27T23:48:28.651Z,1.60
2023-01-27T23:50:56.927Z,1.66
2023-01-27T23:53:26.362Z,1.65
2023-01-27T23:55:58.117Z,1.94
2023-01-27T23:58:26.145Z,1.84
